Time;durP1;ratioP1;P1;durP2;ratioP2;P2;SDS_P1;SDS_P2;PMS_P1;PMS_P2;Temp;Humidity;BMP_temperature;BMP_pressure;BME280_temperature;BME280_humidity;BME280_pressure;Samples;Min_cycle;Max_cycle;Signal;HPM_P1;HPM_P2
2023/05/09 00:00:43;;;;;;;4.72;1.98;;;15.20;99.90;;;;;;4950792;28;20027;-77
2023/05/09 00:03:11;;;;;;;4.50;1.70;;;15.10;99.90;;;;;;4951226;28;20058;-73
2023/05/09 00:05:37;;;;;;;4.53;2.30;;;15.10;99.90;;;;;;4956158;28;20027;-76
2023/05/09 00:08:03;;;;;;;3.35;2.00;;;15.10;99.90;;;;;;4954360;28;20347;-73
2023/05/09 00:10:28;;;;;;;3.60;1.85;;;15.00;99.90;;;;;;4955321;28;20070;-74
2023/05/09 00:12:55;;;;;;;2.67;1.47;;;14.90;99.90;;;;;;4950856;28;20392;-73
2023/05/09 00:15:21;;;;;;;1.70;1.60;;;14.90;99.90;;;;;;4951657;28;20504;-79
2023/05/09 00:17:46;;;;;;;3.10;1.97;;;14.90;99.90;;;;;;4951441;28;20042;-71
2023/05/09 00:20:12;;;;;;;3.30;2.00;;;14.90;99.90;;;;;;4951408;28;20084;-76
2023/05/09 00:22:39;;;;;;;7.10;1.90;;;14.80;99.90;;;;;;4951911;28;20046;-72
2023/05/09 00:25:07;;;;;;;3.00;1.70;;;14.90;99.90;;;;;;4954595;28;20050;-73
2023/05/09 00:27:33;;;;;;;5.10;2.30;;;14.90;99.90;;;;;;4950613;28;20066;-80
2023/05/09 00:29:59;;;;;;;3.15;1.70;;;14.80;99.90;;;;;;4949719;28;20060;-76
2023/05/09 00:32:25;;;;;;;2.57;1.70;;;14.90;99.90;;;;;;4951715;28;20545;-80
2023/05/09 00:34:51;;;;;;;2.63;2.25;;;14.90;99.90;;;;;;4951933;28;20027;-73
2023/05/09 00:37:20;;;;;;;5.00;2.13;;;14.90;99.90;;;;;;4953113;28;20483;-81
2023/05/09 00:39:49;;;;;;;3.95;2.08;;;15.00;99.90;;;;;;4953783;28;20488;-75
2023/05/09 00:42:15;;;;;;;6.13;1.77;;;14.80;99.90;;;;;;4951086;28;20513;-70
2023/05/09 00:44:40;;;;;;;2.92;2.10;;;14.70;99.90;;;;;;4948644;28;20448;-70
2023/05/09 00:47:06;;;;;;;5.67;2.47;;;14.60;99.90;;;;;;4951824;28;20047;-76
2023/05/09 00:49:34;;;;;;;5.50;2.15;;;14.60;99.90;;;;;;4953866;28;20063;-71
2023/05/09 00:52:01;;;;;;;1.90;1.60;;;14.60;99.90;;;;;;4949338;28;20039;-74
2023/05/09 00:54:27;;;;;;;3.45;2.10;;;14.50;99.90;;;;;;4949197;28;20059;-78
2023/05/09 00:56:53;;;;;;;2.27;1.77;;;14.40;99.90;;;;;;4951209;28;20039;-73
2023/05/09 00:59:19;;;;;;;4.18;2.42;;;14.50;99.90;;;;;;4949131;28;20031;-80
2023/05/09 01:01:45;;;;;;;2.28;1.80;;;14.40;99.90;;;;;;4952418;28;20483;-76
2023/05/09 01:04:11;;;;;;;4.97;1.80;;;14.40;99.90;;;;;;4952984;28;20027;-71
2023/05/09 01:07:01;;;;;;;11.23;2.63;;;14.30;99.90;;;;;;4953482;28;20039;-71
2023/05/09 01:09:42;;;;;;;4.75;2.42;;;14.40;99.90;;;;;;4952788;28;20504;-73
2023/05/09 01:13:12;;;;;;;4.63;2.65;;;14.20;99.90;;;;;;4967849;28;20070;-71
2023/05/09 01:16:22;;;;;;;8.20;2.53;;;14.00;99.90;;;;;;4916752;29;20032;-72
2023/05/09 01:19:36;;;;;;;5.05;1.98;;;14.00;99.90;;;;;;4948466;28;20043;-73
2023/05/09 01:22:06;;;;;;;2.30;2.10;;;14.00;99.90;;;;;;4955912;28;20460;-79
2023/05/09 01:25:00;;;;;;;5.00;1.90;;;14.00;99.90;;;;;;4955237;28;20118;-71
2023/05/09 01:27:44;;;;;;;3.97;2.10;;;14.00;99.90;;;;;;4954519;28;20488;-72
2023/05/09 01:30:12;;;;;;;3.33;1.98;;;14.10;99.90;;;;;;4953846;28;20035;-70
2023/05/09 01:32:39;;;;;;;3.00;2.00;;;14.20;99.90;;;;;;4956569;28;20495;-74
2023/05/09 01:35:07;;;;;;;2.80;2.42;;;14.10;99.90;;;;;;4959011;28;20519;-81
2023/05/09 01:37:35;;;;;;;2.78;1.85;;;14.20;99.90;;;;;;4957551;28;20038;-70
2023/05/09 01:40:09;;;;;;;2.05;1.77;;;14.20;99.90;;;;;;4952250;28;20031;-70
2023/05/09 01:43:03;;;;;;;4.45;2.63;;;14.10;99.90;;;;;;4954974;28;20047;-70
2023/05/09 01:45:30;;;;;;;3.63;2.50;;;14.10;99.90;;;;;;4952434;28;20077;-70
2023/05/09 01:47:56;;;;;;;6.65;2.50;;;14.00;99.90;;;;;;4953643;28;20039;-74
2023/05/09 01:50:22;;;;;;;5.88;2.13;;;14.00;99.90;;;;;;4954363;28;20035;-75
2023/05/09 01:52:52;;;;;;;3.83;2.38;;;14.00;99.90;;;;;;4954296;28;20393;-71
2023/05/09 01:55:20;;;;;;;3.63;2.30;;;13.90;99.90;;;;;;4951784;28;20031;-70
2023/05/09 01:57:47;;;;;;;2.97;2.03;;;13.80;99.90;;;;;;4952192;28;20030;-70
2023/05/09 02:00:13;;;;;;;2.85;2.10;;;13.80;99.90;;;;;;4952804;28;20063;-69
2023/05/09 02:02:39;;;;;;;;;;;13.90;99.90;;;;;;4952615;28;20775;-71
2023/05/09 02:05:08;;;;;;;3.17;1.88;;;14.00;99.90;;;;;;4951498;28;19964;-70
2023/05/09 02:07:35;;;;;;;5.38;1.98;;;13.90;99.90;;;;;;4954484;28;20487;-70
2023/05/09 02:10:01;;;;;;;3.28;2.20;;;14.00;99.90;;;;;;4951897;28;20037;-70
2023/05/09 02:12:27;;;;;;;5.28;2.08;;;13.90;99.90;;;;;;4953491;28;20058;-70
2023/05/09 02:14:53;;;;;;;4.20;2.57;;;14.00;99.90;;;;;;4954849;28;20035;-72
2023/05/09 02:17:20;;;;;;;3.73;2.13;;;14.00;99.90;;;;;;4951528;28;20147;-74
2023/05/09 02:19:46;;;;;;;4.18;1.92;;;14.00;99.90;;;;;;4950694;28;20031;-69
2023/05/09 02:22:12;;;;;;;5.17;2.03;;;14.00;99.90;;;;;;4953608;28;20688;-71
2023/05/09 02:24:38;;;;;;;3.80;1.92;;;14.10;99.90;;;;;;4950987;28;20563;-75
2023/05/09 02:27:04;;;;;;;2.87;2.13;;;14.00;99.90;;;;;;4954472;28;20126;-70
2023/05/09 02:29:39;;;;;;;2.22;2.03;;;13.90;99.90;;;;;;4952820;28;20346;-72
2023/05/09 02:32:12;;;;;;;5.03;2.22;;;13.90;99.90;;;;;;4952255;28;20055;-70
2023/05/09 02:34:39;;;;;;;3.20;1.90;;;13.90;99.90;;;;;;4951877;28;20119;-77
2023/05/09 02:37:06;;;;;;;2.63;2.40;;;13.90;99.90;;;;;;4956206;28;20035;-75
2023/05/09 02:39:32;;;;;;;3.63;2.45;;;13.80;99.90;;;;;;4955030;28;20730;-73
2023/05/09 02:42:05;;;;;;;6.27;2.67;;;13.80;99.90;;;;;;4952695;28;20397;-71
2023/05/09 02:44:31;;;;;;;2.90;2.50;;;13.80;99.90;;;;;;4950921;28;20365;-70
2023/05/09 02:46:57;;;;;;;2.65;2.30;;;13.80;99.90;;;;;;4954683;28;20630;-73
2023/05/09 02:49:23;;;;;;;5.20;2.40;;;13.70;99.90;;;;;;4954202;28;20130;-71
2023/05/09 02:51:48;;;;;;;3.77;2.07;;;13.60;99.90;;;;;;4957256;28;20973;-70
2023/05/09 02:54:14;;;;;;;3.87;2.53;;;13.60;99.90;;;;;;4950028;28;20035;-79
2023/05/09 02:56:40;;;;;;;6.57;2.70;;;13.80;99.90;;;;;;4952968;28;20038;-74
2023/05/09 02:59:06;;;;;;;3.03;2.50;;;13.80;99.90;;;;;;4953465;28;20038;-72
2023/05/09 03:01:31;;;;;;;7.10;2.53;;;13.80;99.90;;;;;;4948952;28;20039;-71
2023/05/09 03:03:57;;;;;;;6.47;2.77;;;13.80;99.90;;;;;;4952126;28;20042;-71
2023/05/09 03:06:23;;;;;;;3.30;2.50;;;13.70;99.90;;;;;;4952160;28;20031;-74
2023/05/09 03:08:48;;;;;;;4.27;3.23;;;13.80;99.90;;;;;;4951042;28;20031;-71
2023/05/09 03:11:14;;;;;;;3.30;2.40;;;13.80;99.90;;;;;;4953876;28;20055;-80
2023/05/09 03:13:39;;;;;;;4.27;2.83;;;13.70;99.90;;;;;;4954785;28;20027;-82
2023/05/09 03:16:05;;;;;;;7.23;3.07;;;13.70;99.90;;;;;;4958837;28;20035;-72
2023/05/09 03:18:31;;;;;;;6.28;2.75;;;13.70;99.90;;;;;;4953561;28;20031;-73
2023/05/09 03:20:57;;;;;;;4.00;2.57;;;13.70;99.90;;;;;;4951351;28;20047;-73
2023/05/09 03:23:22;;;;;;;6.00;2.75;;;13.70;99.90;;;;;;4955825;28;20101;-73
2023/05/09 03:25:48;;;;;;;10.03;2.90;;;13.70;99.90;;;;;;4950238;28;20408;-80
2023/05/09 03:28:13;;;;;;;4.57;2.53;;;13.70;99.90;;;;;;4954011;28;20039;-72
2023/05/09 03:30:39;;;;;;;3.07;2.63;;;13.80;99.90;;;;;;4950756;28;20035;-75
2023/05/09 03:33:05;;;;;;;6.73;3.07;;;13.80;99.90;;;;;;4950079;28;20051;-71
2023/05/09 03:35:30;;;;;;;2.80;2.37;;;13.60;99.90;;;;;;4953333;28;20035;-76
2023/05/09 03:37:56;;;;;;;4.23;2.70;;;13.60;99.90;;;;;;4952493;28;20042;-74
2023/05/09 03:40:21;;;;;;;8.03;2.70;;;13.70;99.90;;;;;;4951806;28;20027;-73
2023/05/09 03:42:47;;;;;;;3.23;2.50;;;13.80;99.90;;;;;;4951573;28;20142;-71
2023/05/09 03:45:13;;;;;;;3.20;2.60;;;13.80;99.90;;;;;;4948979;28;20038;-75
2023/05/09 03:47:38;;;;;;;3.13;2.70;;;13.70;99.90;;;;;;4950596;28;20038;-77
2023/05/09 03:50:04;;;;;;;5.70;3.03;;;13.70;99.90;;;;;;4953304;28;20055;-73
2023/05/09 03:52:30;;;;;;;5.32;3.10;;;13.70;99.90;;;;;;4950433;28;20538;-72
2023/05/09 03:54:56;;;;;;;6.67;2.67;;;13.80;99.90;;;;;;4950460;28;20049;-74
2023/05/09 03:57:21;;;;;;;4.27;2.90;;;13.80;99.90;;;;;;4951113;28;20035;-70
2023/05/09 03:59:47;;;;;;;3.90;2.77;;;13.80;99.90;;;;;;4953670;28;20039;-75
2023/05/09 04:02:13;;;;;;;6.83;2.93;;;13.80;99.90;;;;;;4950250;28;20084;-81
2023/05/09 04:04:39;;;;;;;9.85;2.83;;;13.70;99.90;;;;;;4943617;28;20080;-77
2023/05/09 04:07:05;;;;;;;4.63;2.42;;;13.60;99.90;;;;;;4950817;28;20465;-71
2023/05/09 04:09:31;;;;;;;4.15;3.00;;;13.70;99.90;;;;;;4950107;28;20869;-77
2023/05/09 04:11:57;;;;;;;6.83;3.23;;;13.70;99.90;;;;;;4948494;28;20023;-80
2023/05/09 04:14:23;;;;;;;3.75;2.88;;;13.70;99.90;;;;;;4948165;28;20035;-80
2023/05/09 04:16:48;;;;;;;5.28;2.83;;;13.70;99.90;;;;;;4951768;28;20043;-77
2023/05/09 04:19:14;;;;;;;3.83;2.80;;;13.70;99.90;;;;;;4949957;28;20469;-70
2023/05/09 04:21:39;;;;;;;7.90;3.07;;;13.70;99.90;;;;;;4948382;28;20035;-74
2023/05/09 04:24:06;;;;;;;7.23;3.03;;;13.70;99.90;;;;;;4952004;28;20290;-79
2023/05/09 04:26:31;;;;;;;7.85;2.97;;;13.60;99.90;;;;;;4949185;28;20031;-72
2023/05/09 04:28:57;;;;;;;6.22;3.03;;;13.70;99.90;;;;;;4948078;28;20061;-72
2023/05/09 04:31:23;;;;;;;3.30;3.00;;;13.60;99.90;;;;;;4948553;28;20034;-71
2023/05/09 04:33:48;;;;;;;4.30;3.30;;;13.70;99.90;;;;;;4946446;28;20031;-74
2023/05/09 04:36:14;;;;;;;3.80;2.87;;;13.70;99.90;;;;;;4953129;28;20035;-74
2023/05/09 04:38:40;;;;;;;7.38;2.88;;;13.70;99.90;;;;;;4953117;28;20078;-77
2023/05/09 04:41:05;;;;;;;9.30;3.37;;;13.80;99.90;;;;;;4951856;28;20134;-71
2023/05/09 04:43:31;;;;;;;4.82;3.38;;;13.80;99.90;;;;;;4953983;28;20042;-75
2023/05/09 04:45:57;;;;;;;5.70;3.40;;;13.80;99.90;;;;;;4951173;28;20054;-78
2023/05/09 04:48:22;;;;;;;4.23;2.60;;;13.80;99.90;;;;;;4953281;28;20035;-76
2023/05/09 04:50:48;;;;;;;6.30;3.03;;;13.80;99.90;;;;;;4959020;28;20034;-75
2023/05/09 04:53:14;;;;;;;5.30;3.50;;;13.70;99.90;;;;;;4952351;28;20039;-77
2023/05/09 04:55:39;;;;;;;6.80;3.10;;;13.80;99.90;;;;;;4954720;28;20090;-79
2023/05/09 04:58:05;;;;;;;7.70;3.63;;;13.80;99.90;;;;;;4955800;28;20419;-80
2023/05/09 05:00:31;;;;;;;7.53;3.90;;;13.80;99.90;;;;;;4958461;28;20130;-72
2023/05/09 05:02:56;;;;;;;9.18;3.80;;;13.90;99.90;;;;;;4963566;28;20043;-74
2023/05/09 05:05:22;;;;;;;7.33;3.90;;;13.90;99.90;;;;;;4951904;28;20035;-74
2023/05/09 05:07:47;;;;;;;4.63;3.40;;;14.00;99.90;;;;;;4951897;28;20527;-75
2023/05/09 05:10:13;;;;;;;3.83;3.43;;;14.10;99.90;;;;;;4953590;28;20506;-82
2023/05/09 05:12:39;;;;;;;5.23;3.43;;;14.10;99.90;;;;;;4951736;28;20046;-83
2023/05/09 05:15:05;;;;;;;6.28;3.53;;;14.10;99.90;;;;;;4953198;28;20110;-72
2023/05/09 05:17:31;;;;;;;10.07;3.58;;;14.20;99.90;;;;;;4951986;28;20443;-84
2023/05/09 05:19:57;;;;;;;13.27;3.37;;;14.30;99.90;;;;;;4949879;28;20448;-78
2023/05/09 05:22:23;;;;;;;11.52;4.30;;;14.30;99.90;;;;;;4952222;28;20555;-73
2023/05/09 05:24:49;;;;;;;6.70;3.40;;;14.40;99.90;;;;;;4951056;28;20439;-78
2023/05/09 05:27:14;;;;;;;4.07;3.50;;;14.50;99.90;;;;;;4954746;28;20117;-70
2023/05/09 05:29:40;;;;;;;6.23;3.43;;;14.60;99.90;;;;;;4950836;28;20039;-78
2023/05/09 05:32:05;;;;;;;10.83;3.57;;;14.80;99.90;;;;;;4952984;28;20774;-74
2023/05/09 05:34:31;;;;;;;6.93;3.50;;;14.80;99.90;;;;;;4957606;28;20063;-79
2023/05/09 05:36:57;;;;;;;5.97;3.30;;;14.90;99.90;;;;;;4950695;28;20043;-75
2023/05/09 05:39:22;;;;;;;6.03;3.37;;;15.10;99.90;;;;;;4951462;28;20504;-79
2023/05/09 05:41:48;;;;;;;6.93;4.37;;;15.20;99.90;;;;;;4955141;28;20043;-71
2023/05/09 05:44:14;;;;;;;3.97;3.40;;;15.20;99.90;;;;;;4951461;28;20031;-70
2023/05/09 05:46:39;;;;;;;11.03;4.60;;;15.10;99.90;;;;;;4949767;28;20035;-71
2023/05/09 05:49:05;;;;;;;5.70;3.33;;;15.10;99.90;;;;;;4949806;28;20019;-69
2023/05/09 05:51:30;;;;;;;5.73;3.93;;;15.20;99.90;;;;;;4952995;28;20027;-70
2023/05/09 05:53:56;;;;;;;10.17;4.43;;;15.50;99.90;;;;;;4949223;28;20407;-72
2023/05/09 05:56:22;;;;;;;9.73;4.50;;;15.20;99.90;;;;;;4948915;28;20027;-76
2023/05/09 05:58:47;;;;;;;7.27;4.47;;;15.40;99.90;;;;;;4949805;28;20090;-69
2023/05/09 06:01:13;;;;;;;9.33;4.67;;;15.40;99.90;;;;;;4947212;28;20858;-69
2023/05/09 06:03:39;;;;;;;6.22;3.90;;;15.40;99.90;;;;;;4950746;28;20491;-69
2023/05/09 06:06:05;;;;;;;11.07;5.00;;;15.40;99.90;;;;;;4955986;28;20027;-70
2023/05/09 06:08:30;;;;;;;8.02;4.10;;;15.60;99.90;;;;;;4954748;28;20518;-71
2023/05/09 06:10:56;;;;;;;7.03;4.47;;;15.60;99.90;;;;;;4950169;28;20035;-69
2023/05/09 06:13:21;;;;;;;12.60;5.37;;;15.70;99.90;;;;;;4939772;29;20032;-70
2023/05/09 06:15:47;;;;;;;10.03;5.33;;;15.70;99.90;;;;;;4949097;28;20345;-74
2023/05/09 06:18:13;;;;;;;8.43;5.20;;;15.70;99.90;;;;;;4951714;28;20405;-80
2023/05/09 06:20:38;;;;;;;11.53;5.80;;;15.70;99.90;;;;;;4950288;28;20034;-70
2023/05/09 06:23:04;;;;;;;9.60;5.23;;;15.90;99.90;;;;;;4951982;28;20070;-72
2023/05/09 06:25:30;;;;;;;6.87;5.03;;;15.90;99.90;;;;;;4954035;28;20117;-74
2023/05/09 06:27:55;;;;;;;7.87;5.00;;;15.90;99.90;;;;;;4952715;28;20474;-72
2023/05/09 06:30:21;;;;;;;10.50;6.30;;;15.90;99.90;;;;;;4948765;29;20039;-70
2023/05/09 06:32:46;;;;;;;9.70;4.97;;;16.10;99.90;;;;;;4948293;28;20518;-69
2023/05/09 06:35:12;;;;;;;6.93;4.93;;;16.30;99.90;;;;;;4946481;28;20039;-71
2023/05/09 06:37:37;;;;;;;6.27;4.33;;;16.40;99.90;;;;;;4943439;28;20507;-69
2023/05/09 06:40:03;;;;;;;9.33;4.30;;;16.60;99.90;;;;;;4948963;28;20039;-69
2023/05/09 06:42:31;;;;;;;9.02;4.93;;;16.90;99.90;;;;;;4950925;28;20051;-71
2023/05/09 06:44:57;;;;;;;5.60;4.30;;;17.20;99.90;;;;;;4946392;28;20054;-71
2023/05/09 06:47:22;;;;;;;10.47;4.10;;;17.30;99.90;;;;;;4950673;28;20496;-73
2023/05/09 06:49:48;;;;;;;8.47;3.93;;;17.30;99.90;;;;;;4951734;28;20098;-71
2023/05/09 06:52:14;;;;;;;6.27;4.20;;;17.60;99.90;;;;;;4949387;28;20027;-73
2023/05/09 06:54:40;;;;;;;;;;;17.70;99.90;;;;;;4951205;28;20032;-74
2023/05/09 06:57:06;;;;;;;6.50;3.47;;;17.70;99.90;;;;;;4956875;28;20438;-73
2023/05/09 06:59:32;;;;;;;9.38;4.00;;;18.00;99.90;;;;;;4950082;28;20786;-69
2023/05/09 07:01:58;;;;;;;4.90;3.58;;;18.00;99.90;;;;;;4940949;28;20043;-72
2023/05/09 07:04:24;;;;;;;6.13;3.70;;;18.20;99.90;;;;;;4946748;28;20047;-71
2023/05/09 07:06:49;;;;;;;5.18;3.40;;;18.30;99.90;;;;;;4948330;28;20035;-74
2023/05/09 07:09:17;;;;;;;8.07;3.40;;;18.30;99.90;;;;;;4950853;28;20774;-71
2023/05/09 07:11:44;;;;;;;4.30;3.20;;;18.60;99.90;;;;;;4950411;28;20412;-74
2023/05/09 07:14:10;;;;;;;16.67;2.92;;;18.70;99.90;;;;;;4949144;28;20035;-69
2023/05/09 09:03:31;;;;;;;4.65;1.70;;;25.00;86.50;;;;;;5121278;27;20406;-70
2023/05/09 09:05:57;;;;;;;;;;;25.20;85.00;;;;;;5111851;28;20023;-70
2023/05/09 09:08:25;;;;;;;7.18;1.58;;;25.80;80.10;;;;;;5098940;28;20019;-70
2023/05/09 09:10:51;;;;;;;7.38;1.55;;;26.10;80.30;;;;;;5106231;28;20031;-69
2023/05/09 09:13:17;;;;;;;10.43;3.65;;;27.70;78.50;;;;;;5090861;28;20054;-74
2023/05/09 09:15:45;;;;;;;4.05;2.10;;;27.80;76.00;;;;;;5104505;28;20391;-71
2023/05/09 09:18:15;;;;;;;9.07;3.15;;;26.60;75.20;;;;;;5106198;28;20047;-70
2023/05/09 09:20:49;;;;;;;2.10;1.60;;;27.20;75.80;;;;;;5088092;28;20066;-68
2023/05/09 09:23:19;;;;;;;12.30;3.47;;;27.70;71.90;;;;;;5102339;28;20440;-73
2023/05/09 09:25:55;;;;;;;21.98;8.20;;;29.10;69.00;;;;;;5098951;28;20031;-69
2023/05/09 09:28:21;;;;;;;6.32;2.30;;;29.80;68.60;;;;;;5107408;28;20116;-69
2023/05/09 09:30:47;;;;;;;3.60;1.67;;;31.00;67.70;;;;;;5106326;28;20062;-70
2023/05/09 09:33:24;;;;;;;1.63;1.40;;;30.80;67.10;;;;;;5101393;28;20506;-71
2023/05/09 09:35:51;;;;;;;3.58;1.92;;;30.70;66.20;;;;;;5110414;28;20888;-70
2023/05/09 09:38:21;;;;;;;4.18;2.08;;;30.10;68.00;;;;;;5098567;28;20019;-69
2023/05/09 09:40:57;;;;;;;3.30;1.50;;;29.60;67.90;;;;;;5102393;28;20030;-69
2023/05/09 09:43:30;;;;;;;4.90;1.70;;;29.10;69.40;;;;;;5100119;28;20040;-70
2023/05/09 09:45:59;;;;;;;9.55;1.95;;;29.10;68.80;;;;;;5102806;28;20500;-70
2023/05/09 09:51:55;;;;;;;3.60;1.67;;;28.80;68.40;;;;;;5065754;28;20418;-69
2023/05/09 09:54:24;;;;;;;6.97;2.53;;;29.40;67.80;;;;;;5049854;28;20025;-67
2023/05/09 09:56:55;;;;;;;4.55;1.60;;;29.20;69.30;;;;;;5045039;28;20041;-67
2023/05/09 09:59:23;;;;;;;4.03;1.52;;;28.90;68.90;;;;;;5049784;28;20033;-68
2023/05/09 10:02:11;;;;;;;4.68;1.90;;;28.80;67.70;;;;;;5043116;28;20041;-68
2023/05/09 10:04:38;;;;;;;3.63;1.30;;;27.30;69.20;;;;;;5046532;28;20029;-69
2023/05/09 10:07:06;;;;;;;6.97;1.70;;;27.30;70.00;;;;;;5045429;28;20037;-67
2023/05/09 10:09:33;;;;;;;1.95;1.30;;;27.00;71.40;;;;;;5049532;28;20123;-68
2023/05/09 10:12:06;;;;;;;1.45;1.13;;;27.00;72.50;;;;;;5042394;28;20048;-68
2023/05/09 10:14:34;;;;;;;6.57;1.33;;;27.20;70.80;;;;;;5041047;28;20494;-67
2023/05/09 10:17:02;;;;;;;1.67;1.20;;;26.80;72.30;;;;;;5039703;28;20103;-68
2023/05/09 10:19:29;;;;;;;5.20;1.67;;;26.70;77.00;;;;;;5046113;28;20393;-68
2023/05/09 10:22:03;;;;;;;2.70;1.30;;;26.60;74.40;;;;;;5044604;28;20041;-68
2023/05/09 10:24:56;;;;;;;3.17;1.27;;;26.50;75.50;;;;;;5040478;28;20041;-68
2023/05/09 10:27:26;;;;;;;6.03;1.92;;;26.40;74.60;;;;;;5046479;28;20026;-68
2023/05/09 10:30:12;;;;;;;2.88;1.20;;;26.00;73.90;;;;;;5042382;28;20806;-68
2023/05/09 10:33:07;;;;;;;2.58;1.70;;;26.10;74.60;;;;;;5044107;28;20767;-68
2023/05/09 10:35:36;;;;;;;4.90;2.53;;;25.20;76.20;;;;;;5045759;28;20025;-68
2023/05/09 10:38:02;;;;;;;1.63;1.40;;;25.20;79.10;;;;;;5041469;28;20025;-68
2023/05/09 10:40:28;;;;;;;;;;;25.20;78.60;;;;;;5045465;28;20033;-67
2023/05/09 10:42:54;;;;;;;3.05;1.52;;;25.30;77.80;;;;;;5084594;28;19982;-68
2023/05/09 10:45:21;;;;;;;2.17;1.45;;;25.10;76.30;;;;;;5042054;28;20489;-67
2023/05/09 10:47:50;;;;;;;4.10;2.33;;;25.10;78.60;;;;;;5047697;28;20809;-67
2023/05/09 10:50:16;;;;;;;2.75;1.63;;;25.20;78.40;;;;;;5044787;28;20045;-67
2023/05/09 10:53:07;;;;;;;3.05;1.60;;;25.20;80.00;;;;;;5045269;28;20020;-68
2023/05/09 10:55:46;;;;;;;3.08;1.83;;;25.30;79.40;;;;;;5041932;28;20112;-68
2023/05/09 10:58:26;;;;;;;2.60;1.60;;;25.00;79.40;;;;;;5047071;28;20025;-68
2023/05/09 11:00:54;;;;;;;2.33;1.70;;;24.90;80.00;;;;;;5041634;28;20033;-67
2023/05/09 11:03:20;;;;;;;3.60;1.75;;;24.80;82.30;;;;;;5034729;28;20031;-67
2023/05/09 11:05:48;;;;;;;3.03;2.10;;;24.70;81.30;;;;;;5032168;28;20033;-67
2023/05/09 11:08:35;;;;;;;4.80;1.40;;;24.60;81.70;;;;;;5034453;28;20212;-67
2023/05/09 11:11:06;;;;;;;2.25;1.60;;;24.40;81.30;;;;;;5028947;28;20037;-68
2023/05/09 11:13:36;;;;;;;4.63;2.33;;;24.30;81.90;;;;;;5046244;28;20120;-66
2023/05/09 11:16:02;;;;;;;2.90;1.48;;;24.20;82.40;;;;;;5031963;28;20033;-67
2023/05/09 11:18:28;;;;;;;2.63;1.80;;;24.10;83.90;;;;;;5032154;28;20029;-67
2023/05/09 11:20:54;;;;;;;;;;;24.00;84.70;;;;;;5029287;28;20128;-68
2023/05/09 11:23:24;;;;;;;2.80;1.42;;;23.80;85.20;;;;;;5034363;28;20396;-68
2023/05/09 11:25:50;;;;;;;3.03;2.15;;;23.70;85.60;;;;;;5028169;28;20033;-68
2023/05/09 11:28:30;;;;;;;5.78;1.80;;;23.70;85.60;;;;;;5030957;28;20029;-67
2023/05/09 11:31:15;;;;;;;5.07;1.50;;;23.70;84.60;;;;;;5036457;28;20095;-67
2023/05/09 11:33:43;;;;;;;4.35;1.25;;;23.60;82.80;;;;;;5031372;28;20025;-67
2023/05/09 11:36:30;;;;;;;2.00;1.48;;;23.70;84.70;;;;;;5031208;28;20056;-67
2023/05/09 11:39:06;;;;;;;2.45;1.70;;;23.80;84.20;;;;;;5030908;28;20112;-67
2023/05/09 11:41:55;;;;;;;2.45;1.50;;;23.70;84.10;;;;;;5031552;28;20022;-68
2023/05/09 11:44:21;;;;;;;1.33;1.23;;;23.80;83.90;;;;;;5035689;28;20132;-67
2023/05/09 11:46:48;;;;;;;2.23;1.50;;;23.60;84.60;;;;;;5036478;28;20112;-67
2023/05/09 11:49:14;;;;;;;1.63;1.40;;;23.60;86.10;;;;;;5032576;28;20370;-68
2023/05/09 11:51:40;;;;;;;;;;;23.50;83.40;;;;;;5028725;28;20036;-67
2023/05/09 11:54:06;;;;;;;3.38;1.50;;;23.50;86.10;;;;;;5031121;28;19962;-67
2023/05/09 11:56:34;;;;;;;6.97;1.95;;;23.40;87.80;;;;;;5029612;28;20404;-67
2023/05/09 11:59:00;;;;;;;2.35;1.60;;;23.30;90.10;;;;;;5028721;28;20021;-67
2023/05/09 12:01:27;;;;;;;3.47;1.48;;;23.20;87.30;;;;;;5032902;28;20034;-67
2023/05/09 12:03:52;;;;;;;4.07;1.40;;;23.00;83.00;;;;;;5026726;28;20021;-67
2023/05/09 12:06:19;;;;;;;6.00;1.00;;;22.80;81.90;;;;;;5025913;28;20390;-67
2023/05/09 12:08:46;;;;;;;4.28;1.10;;;22.60;78.00;;;;;;5022928;28;20033;-67
2023/05/09 12:11:12;;;;;;;;;;;22.50;78.90;;;;;;5029352;28;20951;-66
2023/05/09 12:13:46;;;;;;;1.40;1.08;;;22.50;81.00;;;;;;5028138;28;20000;-67
2023/05/09 12:16:11;;;;;;;2.78;1.23;;;22.60;80.70;;;;;;5034016;28;20100;-66
2023/05/09 12:18:37;;;;;;;5.18;1.30;;;22.60;81.00;;;;;;5026009;28;20113;-66
2023/05/09 12:21:03;;;;;;;3.63;1.50;;;22.50;83.40;;;;;;5031870;28;20030;-65
2023/05/09 12:23:33;;;;;;;4.80;1.50;;;22.70;87.20;;;;;;5029199;28;20030;-67
2023/05/09 12:25:59;;;;;;;3.70;1.70;;;22.80;88.40;;;;;;5027298;28;20041;-66
2023/05/09 12:28:25;;;;;;;2.13;1.40;;;22.80;88.80;;;;;;5027517;28;20032;-67
2023/05/09 12:30:52;;;;;;;2.42;1.20;;;22.70;90.50;;;;;;5028598;28;20878;-66
2023/05/09 12:33:18;;;;;;;1.20;1.10;;;22.50;89.80;;;;;;5029460;28;20107;-66
2023/05/09 12:35:46;;;;;;;5.47;1.15;;;22.30;87.10;;;;;;5032242;28;20117;-66
2023/05/09 12:38:14;;;;;;;3.88;1.45;;;22.00;87.50;;;;;;5030675;28;20048;-67
2023/05/09 12:40:41;;;;;;;3.35;1.00;;;21.70;86.00;;;;;;5026492;28;20040;-67
2023/05/09 12:43:07;;;;;;;3.90;1.10;;;21.40;86.80;;;;;;5025736;28;20033;-66
2023/05/09 12:45:33;;;;;;;2.67;1.33;;;21.20;89.00;;;;;;5030638;28;20029;-66
2023/05/09 12:48:01;;;;;;;2.83;1.03;;;21.10;90.40;;;;;;5027260;28;20037;-68
2023/05/09 12:50:34;;;;;;;2.70;1.48;;;21.00;91.10;;;;;;5026695;28;20072;-68
2023/05/09 12:53:01;;;;;;;3.17;1.23;;;21.20;91.10;;;;;;5026675;28;20021;-66
2023/05/09 12:55:27;;;;;;;4.43;1.33;;;21.10;90.40;;;;;;5028268;28;20033;-67
2023/05/09 12:58:02;;;;;;;3.25;1.50;;;21.00;91.10;;;;;;5028971;28;20060;-67
2023/05/09 13:00:28;;;;;;;1.77;1.20;;;21.20;90.80;;;;;;5018669;28;20038;-67
2023/05/09 13:02:54;;;;;;;;;;;21.10;91.80;;;;;;5024862;28;20129;-68
2023/05/09 13:05:21;;;;;;;4.13;1.45;;;21.10;92.60;;;;;;5042520;28;20079;-68
2023/05/09 13:07:51;;;;;;;3.00;1.27;;;21.10;93.70;;;;;;5031006;28;20034;-67
2023/05/09 13:10:23;;;;;;;2.10;1.20;;;21.20;93.30;;;;;;5035752;28;20179;-68
2023/05/09 13:12:51;;;;;;;4.53;1.30;;;21.00;94.30;;;;;;5028760;28;20037;-67
2023/05/09 13:15:21;;;;;;;2.03;1.40;;;20.90;93.00;;;;;;5032499;28;20025;-67
2023/05/09 13:17:51;;;;;;;2.42;1.33;;;20.80;94.80;;;;;;5020196;28;20075;-67
2023/05/09 13:20:17;;;;;;;1.95;1.23;;;20.60;94.80;;;;;;5025310;28;20090;-67
2023/05/09 13:22:44;;;;;;;5.55;1.30;;;20.50;95.80;;;;;;5028519;28;20033;-67
2023/05/09 13:25:10;;;;;;;;;;;20.50;98.00;;;;;;5016730;28;20026;-67
2023/05/09 13:27:36;;;;;;;3.45;1.40;;;20.30;97.60;;;;;;5030694;28;19916;-66
2023/05/09 13:30:02;;;;;;;;;;;20.00;97.00;;;;;;5032690;28;20034;-68
2023/05/09 13:32:28;;;;;;;1.70;1.10;;;19.60;99.90;;;;;;5028216;28;19912;-67
2023/05/09 13:34:54;;;;;;;4.72;1.30;;;19.40;99.90;;;;;;5027752;28;20333;-67
2023/05/09 13:37:20;;;;;;;3.30;1.33;;;19.40;99.90;;;;;;5030804;28;20539;-68
2023/05/09 13:39:47;;;;;;;4.03;1.30;;;19.30;99.90;;;;;;5030140;28;20422;-66
2023/05/09 13:42:13;;;;;;;2.30;1.35;;;19.30;99.90;;;;;;5034008;28;20112;-67
2023/05/09 13:44:38;;;;;;;1.25;1.10;;;19.30;99.90;;;;;;5024272;28;20139;-67
2023/05/09 13:47:06;;;;;;;3.23;1.20;;;19.10;99.90;;;;;;5029961;28;20035;-67
2023/05/09 13:49:33;;;;;;;2.17;0.90;;;19.00;99.90;;;;;;5028868;28;20386;-67
2023/05/09 13:51:58;;;;;;;2.60;1.20;;;18.90;99.90;;;;;;5023573;28;20091;-66
2023/05/09 13:54:25;;;;;;;3.47;1.38;;;18.50;99.90;;;;;;5029973;28;20549;-67
2023/05/09 13:56:51;;;;;;;3.33;1.10;;;18.80;99.90;;;;;;5032606;28;20450;-66
2023/05/09 13:59:17;;;;;;;2.75;1.08;;;18.80;99.90;;;;;;5028323;28;20057;-67
2023/05/09 14:01:43;;;;;;;2.47;1.25;;;18.80;99.90;;;;;;5028984;28;20083;-67
2023/05/09 14:04:09;;;;;;;1.20;0.98;;;18.80;99.90;;;;;;5027926;28;20113;-67
2023/05/09 14:06:34;;;;;;;4.05;1.48;;;18.80;99.90;;;;;;5026830;28;20378;-67
2023/05/09 14:09:00;;;;;;;1.80;0.90;;;18.70;99.90;;;;;;5029443;28;20032;-67
2023/05/09 14:11:26;;;;;;;2.10;0.87;;;18.70;99.90;;;;;;5030148;28;20468;-67
2023/05/09 14:13:51;;;;;;;1.53;1.10;;;18.50;99.90;;;;;;5032370;28;20497;-67
2023/05/09 14:16:18;;;;;;;4.13;1.10;;;18.40;99.90;;;;;;5041864;28;20068;-66
2023/05/09 14:18:44;;;;;;;1.65;1.20;;;18.40;99.90;;;;;;5030396;28;20033;-66
2023/05/09 14:21:09;;;;;;;1.20;0.90;;;18.40;99.90;;;;;;5025559;28;20042;-66
2023/05/09 14:23:35;;;;;;;1.87;1.03;;;18.30;99.90;;;;;;5029677;28;20025;-67
2023/05/09 14:26:01;;;;;;;2.13;0.93;;;18.40;99.90;;;;;;5030541;28;20052;-67
2023/05/09 14:28:27;;;;;;;1.95;0.90;;;18.20;99.90;;;;;;5024565;28;20033;-67
2023/05/09 14:30:52;;;;;;;1.77;0.90;;;18.00;99.90;;;;;;5026590;28;20042;-66
2023/05/09 14:33:18;;;;;;;2.90;1.40;;;18.00;99.90;;;;;;5034701;28;20029;-66
2023/05/09 14:35:43;;;;;;;2.00;1.10;;;17.90;99.90;;;;;;5026760;28;20040;-66
2023/05/09 14:38:11;;;;;;;1.30;0.90;;;18.00;99.90;;;;;;5027788;28;20552;-67
2023/05/09 14:40:36;;;;;;;1.20;0.88;;;17.80;99.90;;;;;;5026224;28;20048;-66
2023/05/09 14:43:02;;;;;;;1.40;0.83;;;18.00;99.90;;;;;;5033172;28;20521;-66